Time;durP1;ratioP1;P1;durP2;ratioP2;P2;SDS_P1;SDS_P2;PMS_P1;PMS_P2;Temp;Humidity;BMP_temperature;BMP_pressure;BME280_temperature;BME280_humidity;BME280_pressure;Samples;Min_cycle;Max_cycle;Signal;HPM_P1;HPM_P2
2022/05/23 00:00:18;;;;;;;12.18;7.70;;;6.30;1.00;;;6.87;100.00;98564.19;5039575;27;132158;-74
2022/05/23 00:02:47;;;;;;;12.63;7.85;;;6.20;1.00;;;6.80;100.00;98562.72;5039916;27;120324;-74
2022/05/23 00:05:16;;;;;;;12.60;7.95;;;6.20;1.00;;;6.73;100.00;98570.47;5039744;27;120814;-74
2022/05/23 00:07:48;;;;;;;9.80;7.40;;;6.20;1.00;;;6.69;100.00;98569.47;5039807;27;129782;-73
2022/05/23 00:10:20;;;;;;;10.35;7.57;;;6.20;1.00;;;6.69;100.00;98572.19;5039170;27;129897;-73
2022/05/23 00:12:49;;;;;;;11.57;7.70;;;6.20;1.00;;;6.63;100.00;98571.50;5039132;27;120414;-75
2022/05/23 00:15:19;;;;;;;12.77;8.63;;;6.20;1.00;;;6.56;100.00;98578.44;5039412;27;119608;-75
2022/05/23 00:17:48;;;;;;;11.65;7.72;;;6.10;1.00;;;6.54;100.00;98577.94;5038997;27;130114;-74
2022/05/23 00:20:23;;;;;;;15.27;7.75;;;6.10;1.00;;;6.49;100.00;98570.78;5038830;27;130276;-73
2022/05/23 00:22:51;;;;;;;14.05;7.82;;;6.00;9.40;;;6.45;100.00;98576.00;5039033;27;120322;-73
2022/05/23 00:25:20;;;;;;;10.70;7.32;;;6.00;27.10;;;6.43;100.00;98577.41;5025082;27;118882;-73
2022/05/23 00:27:50;;;;;;;14.30;8.35;;;6.00;29.70;;;6.40;100.00;98584.19;5038905;27;130347;-73
2022/05/23 00:30:22;;;;;;;11.95;7.70;;;5.90;47.50;;;6.38;100.00;98583.69;5038808;27;129806;-75
2022/05/23 00:35:38;;;;;;;11.65;7.90;;;5.90;58.90;;;6.34;100.00;98581.94;5037864;27;123236;-73
2022/05/23 00:38:06;;;;;;;12.55;7.30;;;5.80;69.10;;;6.30;100.00;98596.00;5023397;27;128711;-76
2022/05/23 00:40:43;;;;;;;11.40;7.80;;;5.80;81.40;;;6.22;100.00;98593.25;5040590;27;128445;-73
2022/05/23 00:43:17;;;;;;;12.35;6.90;;;5.80;99.90;;;6.10;100.00;98591.88;5037479;27;120174;-73
2022/05/23 00:45:51;;;;;;;13.52;7.15;;;5.80;99.90;;;6.07;100.00;98597.88;5038916;27;119671;-74
2022/05/23 00:48:23;;;;;;;10.95;7.15;;;5.80;99.90;;;6.07;100.00;98592.47;5040529;27;129896;-74
2022/05/23 00:50:56;;;;;;;14.13;7.78;;;5.70;99.90;;;6.06;100.00;98593.59;5038689;27;130158;-75
2022/05/23 00:53:30;;;;;;;12.75;7.53;;;5.70;99.90;;;6.08;100.00;98599.47;5038898;27;120018;-74
2022/05/23 00:56:00;;;;;;;12.88;7.60;;;5.60;99.90;;;6.08;100.00;98604.84;5037525;27;119608;-75
2022/05/23 00:58:33;;;;;;;10.25;6.60;;;5.60;99.90;;;6.07;100.00;98608.66;5039709;27;130429;-73
2022/05/23 01:01:11;;;;;;;10.55;7.78;;;5.60;99.90;;;6.02;100.00;98607.97;5036983;27;129523;-72
2022/05/23 01:03:40;;;;;;;10.88;7.38;;;5.60;99.90;;;5.99;100.00;98606.69;5040451;27;119413;-73
2022/05/23 01:06:10;;;;;;;11.02;6.93;;;5.50;99.90;;;5.95;100.00;98605.66;5037338;27;119438;-72
2022/05/23 01:08:41;;;;;;;13.55;6.68;;;5.50;99.90;;;5.91;100.00;98604.69;5040234;27;129635;-73
2022/05/23 01:11:10;;;;;;;13.75;7.43;;;5.50;99.90;;;5.91;100.00;98604.69;5023222;27;128526;-72
2022/05/23 01:13:39;;;;;;;11.23;7.03;;;5.50;99.90;;;5.82;100.00;98611.88;5057413;27;119076;-74
2022/05/23 01:16:09;;;;;;;13.20;6.72;;;5.50;99.90;;;5.76;100.00;98614.69;5037604;27;119914;-74
2022/05/23 01:18:44;;;;;;;9.20;6.05;;;5.40;99.90;;;5.76;100.00;98603.91;5040433;27;130142;-74
2022/05/23 01:21:26;;;;;;;9.77;6.32;;;5.40;99.90;;;5.80;100.00;98619.44;5022962;27;128783;-73
2022/05/23 01:24:02;;;;;;;10.23;6.13;;;5.40;99.90;;;5.75;100.00;98623.84;5022138;27;122307;-73
2022/05/23 01:26:37;;;;;;;8.63;5.50;;;5.30;99.90;;;5.76;100.00;98620.06;5023189;27;121029;-73
2022/05/23 01:29:12;;;;;;;12.10;6.10;;;5.30;99.90;;;5.76;100.00;98621.94;5039899;27;129695;-74
2022/05/23 01:31:49;;;;;;;9.85;5.50;;;5.40;99.90;;;5.78;100.00;98627.03;5022781;27;128286;-74
2022/05/23 01:34:27;;;;;;;10.77;5.88;;;5.30;99.90;;;5.79;100.00;98617.84;5023437;27;118384;-73
2022/05/23 01:37:06;;;;;;;11.75;6.25;;;5.40;99.90;;;5.82;100.00;98622.63;5039841;27;119695;-74
2022/05/23 01:39:51;;;;;;;12.40;6.45;;;5.40;99.90;;;5.76;100.00;98619.25;5039751;27;129339;-73
2022/05/23 01:42:34;;;;;;;14.15;9.30;;;5.30;99.90;;;5.77;100.00;98626.22;5056690;27;129514;-75
2022/05/23 01:45:03;;;;;;;14.32;7.70;;;5.40;99.90;;;5.76;100.00;98620.06;5039826;27;119467;-74
2022/05/23 01:47:32;;;;;;;12.55;7.75;;;5.40;99.90;;;5.76;100.00;98625.44;5023466;27;119720;-74
2022/05/23 01:50:02;;;;;;;16.08;9.98;;;5.40;99.90;;;5.74;100.00;98627.63;5036567;27;131208;-74
2022/05/23 01:52:46;;;;;;;11.35;7.78;;;5.30;99.90;;;5.70;100.00;98637.41;5056444;27;128758;-73
2022/05/23 01:55:20;;;;;;;11.75;7.30;;;5.30;99.90;;;5.68;100.00;98628.81;5036565;27;120186;-74
2022/05/23 01:58:04;;;;;;;13.93;8.55;;;5.30;99.90;;;5.68;100.00;98628.03;5039316;27;120657;-75
2022/05/23 02:03:19;;;;;;;13.07;8.33;;;5.20;99.90;;;5.60;100.00;98639.50;5036186;27;129440;-74
2022/05/23 02:05:51;;;;;;;14.02;8.85;;;5.10;99.90;;;5.57;100.00;98627.44;5056892;27;119930;-72
2022/05/23 02:08:19;;;;;;;14.38;9.07;;;5.10;99.90;;;5.59;100.00;98641.38;5040442;27;120597;-72
2022/05/23 02:10:48;;;;;;;13.18;7.78;;;5.10;99.90;;;5.61;100.00;98631.13;5040310;27;129841;-74
2022/05/23 02:13:23;;;;;;;11.65;6.88;;;5.20;99.90;;;5.65;100.00;98634.81;5043528;27;129429;-74
2022/05/23 02:15:52;;;;;;;10.18;5.95;;;5.20;99.90;;;5.69;100.00;98635.81;5040045;27;123845;-74
2022/05/23 02:18:42;;;;;;;10.95;6.38;;;5.20;99.90;;;5.71;100.00;98638.22;5043122;27;121611;-74
2022/05/23 02:21:11;;;;;;;11.40;6.90;;;5.20;99.90;;;5.73;100.00;98639.50;5039308;27;130428;-75
2022/05/23 02:23:42;;;;;;;14.85;6.93;;;5.20;99.90;;;5.74;100.00;98637.59;5039410;27;129680;-74
2022/05/23 02:26:10;;;;;;;9.27;5.65;;;5.20;99.90;;;5.75;100.00;98644.59;5042908;27;118977;-74
2022/05/23 02:29:18;;;;;;;9.98;5.68;;;5.20;99.90;;;5.83;100.00;98651.97;4980933;28;119778;-74
2022/05/23 02:31:48;;;;;;;12.32;6.30;;;5.30;99.90;;;5.91;100.00;98648.56;5027504;27;130277;-74
2022/05/23 02:34:18;;;;;;;8.88;5.55;;;5.30;99.90;;;5.94;100.00;98649.84;5043322;27;130138;-75
2022/05/23 02:36:53;;;;;;;8.00;4.77;;;5.40;98.20;;;6.02;100.00;98659.94;5040007;27;120231;-75
2022/05/23 02:39:43;;;;;;;8.77;5.13;;;5.50;75.20;;;6.08;99.70;98656.03;5032226;27;118981;-76
2022/05/23 02:42:11;;;;;;;8.40;5.53;;;5.60;34.50;;;6.13;99.13;98654.34;5038164;27;130232;-72
2022/05/23 02:44:42;;;;;;;8.15;4.53;;;5.60;8.80;;;6.18;97.39;98654.22;5025301;27;128631;-74
2022/05/23 02:47:14;;;;;;;8.55;4.70;;;5.60;1.00;;;6.23;95.25;98664.88;5025913;27;118199;-73
2022/05/23 02:49:43;;;;;;;8.57;4.78;;;5.70;1.00;;;6.34;94.02;98654.69;5039494;27;119287;-73
2022/05/23 02:52:17;;;;;;;8.95;4.93;;;5.70;1.00;;;6.35;92.34;98657.06;5025498;27;130150;-73
2022/05/23 02:55:00;;;;;;;15.18;5.93;;;5.80;1.00;;;6.40;91.47;98656.94;5042235;27;129636;-73
2022/05/23 02:57:30;;;;;;;7.32;4.03;;;5.80;1.00;;;6.46;90.26;98658.44;5040456;27;119572;-73
2022/05/23 03:00:01;;;;;;;8.43;4.50;;;5.80;1.00;;;6.58;89.62;98667.91;5039962;27;119991;-73
2022/05/23 03:05:21;;;;;;;6.45;4.00;;;5.90;1.00;;;6.77;88.25;98679.28;5020601;27;130012;-71
2022/05/23 03:07:50;;;;;;;10.25;4.70;;;5.90;1.00;;;7.00;87.86;98682.00;5039411;27;122407;-70
2022/05/23 03:10:18;;;;;;;10.27;4.22;;;6.10;1.00;;;7.26;86.50;98678.66;5039374;27;122601;-70
2022/05/23 03:12:46;;;;;;;9.13;4.22;;;6.20;1.00;;;7.49;85.46;98682.09;5038704;27;130102;-70
2022/05/23 03:15:17;;;;;;;6.63;4.20;;;6.30;1.00;;;7.70;83.32;98682.38;5024487;27;128928;-70
2022/05/23 03:17:45;;;;;;;9.57;5.03;;;6.30;1.00;;;7.86;82.20;98685.44;5025555;27;119530;-69
2022/05/23 03:20:15;;;;;;;8.77;4.85;;;6.40;1.00;;;7.84;80.99;98687.66;5039224;27;119238;-70
2022/05/23 03:28:16;;;;;;;7.88;5.15;;;6.30;1.00;;;7.93;81.73;98688.47;5042134;27;119802;-74
2022/05/23 03:30:46;;;;;;;9.52;4.95;;;6.40;1.00;;;8.17;81.21;98698.88;5040148;27;120506;-74
2022/05/23 03:33:15;;;;;;;11.07;4.82;;;6.70;1.00;;;8.31;80.36;98696.03;5037186;27;130376;-75
2022/05/23 03:35:45;;;;;;;7.22;4.43;;;6.70;1.00;;;8.33;80.16;98698.41;5038449;27;129698;-75
2022/05/23 03:38:13;;;;;;;10.00;4.65;;;6.70;1.00;;;8.39;78.72;98699.84;5039929;27;120064;-76
2022/05/23 03:40:43;;;;;;;6.90;4.20;;;6.60;1.00;;;8.49;78.09;98702.28;5056041;27;119580;-76
2022/05/23 03:43:14;;;;;;;7.05;4.00;;;6.80;1.00;;;8.46;75.95;98700.19;5041410;27;129530;-76
2022/05/23 03:45:43;;;;;;;10.93;4.32;;;6.80;1.00;;;8.51;74.30;98710.88;5038240;27;130106;-70
2022/05/23 03:48:15;;;;;;;7.22;4.60;;;7.00;1.00;;;8.64;76.52;98712.63;5038590;27;119627;-71
2022/05/23 03:50:43;;;;;;;7.03;4.28;;;7.00;1.00;;;8.76;76.60;98711.22;5038922;27;120059;-71
2022/05/23 03:53:12;;;;;;;8.32;3.97;;;7.20;1.00;;;8.82;76.05;98705.31;5037891;27;130523;-73
2022/05/23 03:55:56;;;;;;;5.93;4.07;;;7.20;1.00;;;8.92;76.33;98709.59;5041426;27;128262;-71
2022/05/23 03:58:28;;;;;;;9.00;4.93;;;7.20;1.00;;;8.95;76.01;98695.44;5056885;27;122055;-71
2022/05/23 04:01:21;;;;;;;7.40;4.57;;;7.20;1.00;;;9.04;75.71;98700.03;5039495;27;122223;-75
2022/05/23 04:03:56;;;;;;;6.43;4.35;;;7.30;1.00;;;9.09;75.03;98697.19;5041402;27;128809;-75
2022/05/23 04:06:26;;;;;;;6.97;4.13;;;7.40;1.00;;;9.22;74.57;98712.44;5037961;27;130008;-74
2022/05/23 04:08:59;;;;;;;8.30;4.50;;;7.50;1.00;;;9.28;71.03;98711.13;5038148;27;119697;-74
2022/05/23 04:11:28;;;;;;;6.70;3.60;;;7.50;1.00;;;9.31;72.46;98710.50;5024648;27;119759;-73
2022/05/23 04:13:58;;;;;;;9.65;4.00;;;7.60;1.00;;;9.30;69.27;98711.63;5037578;27;130608;-76
2022/05/23 04:16:29;;;;;;;6.85;4.00;;;7.70;1.00;;;9.42;69.05;98715.59;5061591;27;129315;-74
2022/05/23 04:19:04;;;;;;;6.50;3.90;;;7.70;1.00;;;9.55;71.03;98706.44;5021487;27;119656;-75
2022/05/23 04:21:33;;;;;;;6.18;3.88;;;7.90;1.00;;;9.68;69.59;98713.59;5007664;27;118444;-75
2022/05/23 04:24:01;;;;;;;8.05;3.72;;;8.00;1.00;;;9.83;69.33;98719.56;5038813;27;129331;-75
2022/05/23 04:26:31;;;;;;;9.25;4.72;;;8.10;1.00;;;10.04;67.95;98715.00;5037279;27;129649;-76
2022/05/23 04:29:00;;;;;;;7.20;4.03;;;8.20;1.00;;;10.10;65.35;98717.53;5023809;27;118414;-74
2022/05/23 04:31:29;;;;;;;7.72;3.85;;;8.30;1.00;;;10.01;62.46;98721.09;5037802;27;119317;-75
2022/05/23 04:37:17;;;;;;;6.70;3.83;;;8.40;99.90;;;10.30;62.07;98721.41;5010481;27;131839;-78
2022/05/23 04:39:50;;;;;;;6.97;4.05;;;8.70;99.90;;;10.24;63.08;98724.31;5041174;27;119078;-74
2022/05/23 04:42:19;;;;;;;7.13;4.18;;;8.80;99.90;;;10.34;61.62;98731.31;5024483;27;119342;-74
2022/05/23 04:44:49;;;;;;;7.30;4.10;;;8.80;99.90;;;10.63;59.94;98721.56;5023527;27;129433;-74
2022/05/23 04:50:09;;;;;;;6.25;3.60;;;9.10;99.90;;;11.04;58.76;98728.06;5038174;27;123025;-73
2022/05/23 04:52:40;;;;;;;6.43;4.28;;;9.40;99.90;;;11.02;58.83;98716.75;5034216;27;122274;-74
2022/05/23 04:55:11;;;;;;;8.48;4.32;;;9.50;99.90;;;11.03;59.71;98718.38;5055679;27;129647;-71
2022/05/23 04:57:40;;;;;;;7.65;4.40;;;9.60;99.90;;;11.09;58.69;98725.16;5038881;27;129574;-72
2022/05/23 05:00:14;;;;;;;9.75;5.20;;;9.60;99.90;;;11.29;59.00;98728.16;5036759;27;119026;-73
2022/05/23 05:02:53;;;;;;;8.55;5.45;;;9.80;99.90;;;11.30;58.09;98737.91;5039577;27;120222;-73
2022/05/23 05:05:30;;;;;;;12.95;5.32;;;9.90;99.90;;;11.52;58.38;98737.50;5059459;27;129867;-73
2022/05/23 05:07:59;;;;;;;6.70;4.32;;;10.20;99.90;;;12.02;58.06;98732.97;5041105;27;129887;-75
2022/05/23 05:10:28;;;;;;;7.97;4.47;;;10.50;99.90;;;12.45;54.83;98730.81;5036035;27;119375;-73
2022/05/23 05:12:58;;;;;;;11.00;5.18;;;10.80;99.90;;;12.70;54.67;98733.44;5060555;27;119496;-75
2022/05/23 05:15:29;;;;;;;5.38;3.42;;;10.70;99.90;;;13.00;53.02;98725.00;5040491;27;130345;-74
2022/05/23 05:17:59;;;;;;;7.07;3.92;;;10.90;99.90;;;13.17;52.60;98730.13;5038563;27;128915;-75
2022/05/23 05:20:31;;;;;;;7.22;3.80;;;11.00;99.90;;;13.33;51.44;98726.66;5050292;27;119794;-75
2022/05/23 05:23:00;;;;;;;8.15;3.90;;;11.30;99.90;;;13.29;51.24;98724.63;5057079;27;119251;-73
2022/05/23 05:25:58;;;;;;;5.50;3.58;;;11.50;99.90;;;13.19;50.47;98722.41;5043296;27;130668;-74
2022/05/23 05:28:32;;;;;;;7.78;4.00;;;11.60;99.90;;;13.20;50.67;98729.44;5050435;27;129480;-73
2022/05/23 05:31:06;;;;;;;5.38;3.13;;;11.50;99.90;;;13.37;48.52;98730.28;5053708;27;119583;-71
2022/05/23 05:33:40;;;;;;;7.05;3.67;;;11.60;99.90;;;13.65;47.35;98732.97;5040002;27;119473;-74
2022/05/23 05:36:16;;;;;;;7.75;3.63;;;11.40;99.90;;;13.30;49.42;98723.47;5037328;27;130339;-73
2022/05/23 05:38:49;;;;;;;7.63;3.83;;;11.50;99.90;;;13.50;51.18;98720.13;5036656;27;130643;-75
2022/05/23 05:41:24;;;;;;;6.93;3.28;;;11.90;99.90;;;13.27;47.51;98721.44;5039044;27;122115;-69
2022/05/23 05:44:01;;;;;;;8.63;3.75;;;11.90;99.90;;;13.23;46.76;98727.94;5026040;27;121537;-72
2022/05/23 05:46:38;;;;;;;7.43;3.47;;;12.10;99.90;;;13.45;43.59;98729.34;5027728;27;129931;-72
2022/05/23 05:49:16;;;;;;;5.70;2.90;;;12.30;99.90;;;13.47;43.02;98732.50;5022389;27;129663;-73
2022/05/23 05:51:47;;;;;;;7.75;3.20;;;12.20;99.90;;;13.59;42.65;98734.38;5017670;27;119432;-71
2022/05/23 05:54:24;;;;;;;7.13;3.42;;;12.40;99.90;;;13.91;42.99;98729.72;5051585;27;118995;-73
2022/05/23 05:57:03;;;;;;;7.22;3.33;;;12.50;99.90;;;13.88;44.56;98729.63;5045247;27;128579;-74
2022/05/23 05:59:31;;;;;;;6.07;3.03;;;12.60;99.90;;;14.42;44.85;98725.44;5059666;27;129987;-74
2022/05/23 06:02:01;;;;;;;6.32;3.47;;;12.90;99.90;;;14.48;44.48;98730.25;5052919;27;119705;-71
2022/05/23 06:04:34;;;;;;;5.30;3.17;;;13.00;99.90;;;14.09;44.38;98740.28;5060597;27;119275;-72
2022/05/23 06:13:53;;;;;;;6.13;3.13;;;12.80;99.90;;;14.02;39.41;98728.06;5035382;27;119799;-72
2022/05/23 06:17:01;;;;;;;6.13;3.00;;;13.00;99.90;;;14.17;38.79;98731.91;5029325;27;119811;-71
2022/05/23 06:19:43;;;;;;;4.68;2.42;;;13.20;99.90;;;14.02;37.23;98730.78;5039272;27;130582;-70
2022/05/23 06:22:21;;;;;;;6.13;2.65;;;13.10;99.90;;;14.16;35.06;98740.44;5042225;27;130202;-75
2022/05/23 06:25:05;;;;;;;5.93;3.00;;;13.00;99.90;;;14.45;37.82;98730.19;5039915;27;119739;-71
2022/05/23 06:27:35;;;;;;;4.60;2.53;;;13.20;99.90;;;14.43;35.83;98738.75;5047104;27;119462;-72
2022/05/23 06:30:09;;;;;;;5.13;2.60;;;13.10;99.90;;;14.41;36.55;98742.97;5058260;27;130542;-71
2022/05/23 06:32:56;;;;;;;8.02;2.58;;;13.10;99.90;;;14.41;35.86;98735.56;5024836;27;129376;-75
2022/05/23 06:35:53;;;;;;;5.25;2.42;;;13.10;99.90;;;14.39;37.53;98748.78;5037174;27;122271;-72
2022/05/23 06:38:26;;;;;;;5.28;3.00;;;13.30;99.90;;;14.76;35.43;98744.91;5058869;27;121680;-76
2022/05/23 06:41:06;;;;;;;6.13;2.92;;;13.50;99.90;;;14.67;36.61;98747.88;5064241;27;129860;-73
2022/05/23 06:44:03;;;;;;;5.65;2.95;;;13.50;99.90;;;14.87;36.16;98749.47;5049620;27;129836;-72
2022/05/23 06:46:51;;;;;;;6.95;2.53;;;13.60;99.90;;;14.71;36.27;98744.06;5060954;27;118702;-67
2022/05/23 06:49:39;;;;;;;7.70;3.45;;;13.40;99.90;;;15.16;38.74;98746.50;5063343;27;119572;-74
2022/05/23 06:52:34;;;;;;;5.45;2.95;;;13.90;99.90;;;15.08;36.72;98751.84;5033026;27;130470;-72
2022/05/23 06:55:34;;;;;;;6.95;3.13;;;13.80;99.90;;;15.08;35.47;98751.03;5060094;27;130230;-69
2022/05/23 06:58:06;;;;;;;5.13;2.78;;;13.70;99.90;;;15.06;35.66;98743.19;5061541;27;120052;-69
2022/05/23 07:00:36;;;;;;;5.32;2.85;;;13.70;99.90;;;14.50;36.26;98746.28;5059425;27;119098;-71
2022/05/23 07:03:15;;;;;;;4.60;2.53;;;13.40;99.90;;;14.72;34.97;98753.84;5043804;27;129508;-70
2022/05/23 07:14:20;;;;;;;7.32;3.05;;;13.80;99.90;;;14.35;35.38;98756.88;5059583;27;129596;-73
2022/05/23 07:16:51;;;;;;;4.47;2.70;;;13.50;99.90;;;14.19;34.91;98764.28;5048816;27;129555;-67
2022/05/23 07:19:27;;;;;;;4.35;2.60;;;13.50;99.90;;;14.57;33.98;98755.44;5045409;27;120121;-71
2022/05/23 07:22:03;;;;;;;4.80;2.70;;;13.70;99.90;;;14.47;35.12;98763.38;5048804;27;119489;-74
2022/05/23 07:24:37;;;;;;;6.82;3.15;;;13.60;99.90;;;14.47;36.70;98753.25;5038611;27;131332;-69
2022/05/23 07:27:12;;;;;;;5.65;2.80;;;13.70;99.90;;;14.84;36.07;98757.59;5041502;27;129831;-71
2022/05/23 07:29:42;;;;;;;6.55;3.00;;;14.10;99.90;;;14.90;33.30;98756.16;5040682;27;122090;-73
2022/05/23 07:32:13;;;;;;;6.20;2.58;;;14.10;99.90;;;15.31;33.29;98751.09;5038875;27;122456;-68
2022/05/23 07:34:42;;;;;;;8.65;2.95;;;14.30;99.90;;;15.04;33.63;98761.91;5038567;27;130558;-69
2022/05/23 07:37:11;;;;;;;6.20;2.50;;;14.10;99.90;;;14.67;33.08;98754.09;5022281;27;130802;-76
2022/05/23 07:39:41;;;;;;;5.20;2.90;;;13.90;99.90;;;14.55;32.87;98762.38;5041854;27;119130;-72
2022/05/23 07:42:29;;;;;;;5.82;3.17;;;13.80;99.90;;;14.44;33.07;98758.63;5042815;27;118861;-71
2022/05/23 07:45:01;;;;;;;6.10;2.75;;;13.80;99.90;;;14.61;33.77;98750.06;5041348;27;129980;-67
2022/05/23 07:47:30;;;;;;;6.95;2.80;;;13.90;99.90;;;14.93;32.85;98749.97;5055068;27;130787;-66
2022/05/23 07:50:19;;;;;;;3.78;2.30;;;14.10;99.90;;;15.27;33.58;98747.53;5042452;27;119538;-69
2022/05/23 08:01:10;;;;;;;4.95;2.38;;;14.40;99.90;;;15.34;31.39;98755.84;5037683;27;120261;-71
2022/05/23 08:03:40;;;;;;;6.00;2.83;;;14.40;99.90;;;15.54;31.73;98750.38;5042922;27;118912;-71
2022/05/23 08:06:19;;;;;;;6.38;2.72;;;14.40;99.90;;;15.45;32.30;98754.09;5044862;27;129346;-73
2022/05/23 08:08:49;;;;;;;5.13;2.60;;;14.50;99.90;;;15.16;31.80;98749.25;5061437;27;129332;-69
2022/05/23 08:11:18;;;;;;;4.95;2.58;;;14.20;99.90;;;15.31;32.75;98748.38;5058260;27;119658;-69
2022/05/23 08:14:04;;;;;;;;;;;14.30;99.90;;;15.50;34.15;98739.34;5060575;27;119578;-71
2022/05/23 08:16:39;;;;;;;5.30;2.72;;;14.70;99.90;;;15.76;31.86;98741.38;5060927;27;132286;-70
2022/05/23 08:19:09;;;;;;;5.53;3.03;;;14.80;99.90;;;15.62;32.43;98757.53;5061162;27;128975;-72
2022/05/23 08:21:47;;;;;;;6.90;2.53;;;14.70;99.90;;;15.51;32.66;98754.59;5057004;27;122122;-70
2022/05/23 08:24:16;;;;;;;4.65;2.58;;;14.50;99.90;;;15.42;32.79;98743.09;5061652;27;121342;-72
2022/05/23 08:26:46;;;;;;;4.32;2.63;;;14.30;99.90;;;15.60;33.74;98741.50;5057572;27;129853;-68
2022/05/23 08:29:15;;;;;;;5.82;2.75;;;14.60;99.90;;;15.46;33.73;98750.22;5060785;27;129543;-67
2022/05/23 08:31:55;;;;;;;4.97;2.78;;;14.50;99.90;;;15.38;31.63;98748.53;5057903;27;120224;-73
2022/05/23 08:34:38;;;;;;;5.28;2.80;;;14.30;99.90;;;15.62;33.49;98752.06;5058006;27;119920;-73
2022/05/23 08:37:07;;;;;;;6.50;2.90;;;14.60;99.90;;;15.32;34.51;98749.97;5061420;27;129704;-69
2022/05/23 08:39:35;;;;;;;4.47;2.55;;;14.50;99.90;;;15.23;33.44;98752.13;5058208;27;129300;-71
2022/05/23 08:42:16;;;;;;;5.53;2.88;;;14.40;99.90;;;15.66;31.43;98755.66;5044260;27;120264;-71
2022/05/23 08:45:13;;;;;;;4.15;2.28;;;14.00;99.90;;;15.34;33.25;98758.59;5057965;27;120112;-74
2022/05/23 08:47:55;;;;;;;5.15;2.85;;;14.40;99.90;;;15.19;33.44;98762.19;5059651;27;130453;-71
2022/05/23 08:50:35;;;;;;;3.97;2.45;;;14.40;99.90;;;15.41;31.60;98769.66;5057742;27;130471;-73
2022/05/23 08:53:12;;;;;;;7.05;3.20;;;14.20;99.90;;;15.48;32.58;98762.75;5057695;27;120139;-68
2022/05/23 08:56:11;;;;;;;7.68;3.28;;;14.40;99.90;;;15.54;30.63;98755.84;5061872;27;120091;-68
2022/05/23 08:58:56;;;;;;;7.15;3.05;;;14.50;99.90;;;15.34;32.52;98753.13;5057395;27;130257;-68
2022/05/23 09:01:35;;;;;;;5.72;2.60;;;14.50;99.90;;;15.61;31.87;98758.69;5061724;27;103119;-68
2022/05/23 09:04:14;;;;;;;4.78;2.55;;;14.80;99.90;;;15.91;31.66;98753.41;5057929;27;120449;-68
2022/05/23 09:06:47;;;;;;;7.07;2.70;;;15.00;99.90;;;15.66;31.04;98760.34;5057772;27;119617;-69
2022/05/23 09:09:19;;;;;;;5.53;2.40;;;14.50;99.90;;;15.75;31.95;98753.50;5058537;27;129554;-70
2022/05/23 09:11:50;;;;;;;5.25;2.70;;;14.80;99.90;;;15.96;32.90;98750.34;5057934;27;129497;-70
2022/05/23 09:14:21;;;;;;;4.63;2.60;;;14.90;99.90;;;16.07;31.46;98758.72;5057612;27;122376;-70
2022/05/23 09:16:53;;;;;;;5.50;2.45;;;15.20;99.90;;;15.70;29.82;98753.78;5057369;27;122355;-69
2022/05/23 09:19:31;;;;;;;6.13;2.50;;;14.60;99.90;;;15.33;29.35;98743.31;5057098;27;130051;-68
2022/05/23 09:22:17;;;;;;;5.40;2.70;;;14.40;99.90;;;16.27;30.41;98744.97;5060360;27;128498;-74
2022/05/23 09:24:49;;;;;;;4.75;2.58;;;15.10;99.90;;;15.75;32.03;98750.75;5060888;27;118674;-71
2022/05/23 09:27:25;;;;;;;4.75;2.58;;;14.90;99.90;;;16.03;31.87;98755.13;5060091;27;119037;-71
2022/05/23 09:29:55;;;;;;;8.48;2.53;;;15.20;99.90;;;16.34;31.50;98747.78;5058271;27;129938;-68
2022/05/23 09:32:28;;;;;;;5.80;2.38;;;15.20;99.90;;;16.13;31.38;98746.31;5057772;27;130663;-68
2022/05/23 09:35:01;;;;;;;5.25;2.75;;;15.10;99.90;;;16.40;31.62;98746.31;5058749;27;119771;-68
2022/05/23 09:37:38;;;;;;;5.10;2.72;;;15.30;99.90;;;16.22;31.30;98748.00;5058733;27;119662;-75
2022/05/23 09:40:21;;;;;;;5.65;2.75;;;15.10;99.90;;;16.44;28.00;98755.38;5057172;27;129969;-71
2022/05/23 09:48:36;;;;;;;4.60;2.45;;;15.70;99.90;;;16.29;27.22;98745.38;4998264;28;119976;-71
2022/05/23 09:51:11;;;;;;;6.35;2.40;;;15.20;99.90;;;16.15;27.41;98745.94;5035410;27;129984;-69
2022/05/23 09:53:52;;;;;;;7.40;2.80;;;15.00;99.90;;;16.43;27.71;98745.59;5058113;27;129631;-71
2022/05/23 09:56:38;;;;;;;4.75;2.40;;;15.40;99.90;;;16.38;30.60;98740.44;5057368;27;120002;-69
2022/05/23 09:59:20;;;;;;;5.00;2.57;;;15.50;99.90;;;16.42;29.25;98735.78;5058837;27;119825;-70
2022/05/23 10:01:48;;;;;;;4.70;2.65;;;15.40;99.90;;;16.92;31.13;98732.19;5057981;27;130574;-72
2022/05/23 10:04:22;;;;;;;4.68;2.42;;;15.80;99.90;;;17.33;29.84;98743.25;5059965;27;128955;-72
2022/05/23 10:06:52;;;;;;;5.28;2.53;;;16.20;99.90;;;16.94;28.48;98735.31;5055670;27;121877;-74
2022/05/23 10:09:33;;;;;;;5.38;2.50;;;15.70;99.90;;;17.04;29.90;98729.97;5058148;27;122062;-72
2022/05/23 10:12:25;;;;;;;7.00;2.30;;;15.70;99.90;;;17.20;27.94;98743.50;5055072;27;130270;-74
2022/05/23 10:19:31;;;;;;;6.93;2.50;;;16.10;99.90;;;16.95;29.25;98736.91;5037549;27;119560;-71
2022/05/23 10:22:18;;;;;;;6.43;2.78;;;16.00;99.90;;;17.16;31.27;98734.44;5038151;27;119501;-72
2022/05/23 10:24:57;;;;;;;7.90;2.75;;;16.30;99.90;;;17.79;30.10;98737.41;5039488;27;129542;-73
2022/05/23 10:27:39;;;;;;;5.75;2.47;;;16.40;99.90;;;18.02;28.35;98739.22;5041335;27;130505;-70
2022/05/23 10:30:10;;;;;;;5.50;2.40;;;16.30;99.90;;;17.78;28.98;98727.63;5041401;27;119547;-75
2022/05/23 10:32:48;;;;;;;4.63;2.50;;;15.70;99.90;;;17.19;30.64;98730.94;5041025;27;119962;-71
2022/05/23 10:35:24;;;;;;;4.75;2.40;;;15.90;99.90;;;17.10;31.78;98735.91;5039793;27;130644;-68
2022/05/23 10:42:07;;;;;;;4.57;2.50;;;16.10;99.90;;;16.89;31.34;98739.19;5056500;27;129459;-73
2022/05/23 10:43:47;;;;;;;6.13;2.35;;;16.10;99.90;;;17.70;30.88;98734.19;5042778;27;119656;-70
2022/05/23 10:46:16;;;;;;;5.07;2.53;;;16.00;99.90;;;17.23;30.81;98741.94;5042291;27;129214;-71
2022/05/23 10:48:56;;;;;;;6.45;2.80;;;16.10;99.90;;;17.17;30.75;98743.44;5040660;27;129781;-77
2022/05/23 10:51:35;;;;;;;8.00;2.97;;;16.10;99.90;;;17.84;31.22;98731.59;5040863;27;120439;-72
2022/05/23 10:54:37;;;;;;;6.40;2.92;;;16.40;99.90;;;18.01;31.86;98732.13;5041097;27;120185;-71
2022/05/23 10:57:21;;;;;;;6.85;3.00;;;16.50;99.90;;;17.87;29.15;98725.34;5040268;27;130418;-72
2022/05/23 10:59:58;;;;;;;5.55;2.60;;;16.10;99.90;;;18.26;28.77;98716.66;5040533;27;130162;-71
2022/05/23 11:02:54;;;;;;;4.38;2.42;;;16.40;99.90;;;17.83;28.98;98708.03;5039401;27;122169;-73
2022/05/23 11:05:29;;;;;;;4.60;2.63;;;16.30;99.90;;;18.31;30.88;98713.53;5042476;27;120799;-73
2022/05/23 11:08:29;;;;;;;6.07;2.80;;;16.80;99.90;;;17.51;30.90;98718.72;5039297;27;129971;-73
2022/05/23 11:11:09;;;;;;;4.07;2.40;;;16.20;99.90;;;17.57;30.72;98717.22;5042098;27;128860;-72
2022/05/23 11:13:55;;;;;;;4.20;2.42;;;16.40;99.90;;;17.73;31.68;98722.44;5040680;27;120140;-75
2022/05/23 11:16:35;;;;;;;5.78;2.80;;;16.70;99.90;;;18.41;29.97;98724.97;5042525;27;118677;-74
2022/05/23 11:19:25;;;;;;;5.78;2.20;;;17.00;99.90;;;18.02;30.44;98722.75;5042972;27;131848;-74
2022/05/23 11:22:08;;;;;;;6.00;2.65;;;16.80;99.90;;;17.71;29.09;98735.78;5039200;27;129456;-72
2022/05/23 11:24:45;;;;;;;5.05;2.70;;;16.70;99.90;;;17.54;30.45;98728.94;5042503;27;119137;-73
2022/05/23 11:35:53;;;;;;;5.53;2.83;;;17.00;99.90;;;18.46;29.90;98719.09;5040311;27;119711;-71
2022/05/23 11:38:22;;;;;;;4.93;2.28;;;17.00;99.90;;;17.74;30.13;98732.28;5039139;27;119464;-70
2022/05/23 11:41:10;;;;;;;7.13;2.33;;;16.60;99.90;;;17.78;28.95;98730.34;5041781;27;129627;-72
2022/05/23 11:43:41;;;;;;;4.88;2.78;;;16.70;99.90;;;17.69;30.26;98724.41;5039831;27;129551;-72
2022/05/23 11:46:13;;;;;;;5.55;2.80;;;16.70;99.90;;;17.71;29.93;98728.31;5039889;27;119700;-73
2022/05/23 11:48:54;;;;;;;7.93;2.50;;;16.60;99.90;;;17.87;29.67;98724.53;5040591;27;119686;-68
2022/05/23 11:51:41;;;;;;;4.72;2.60;;;16.60;99.90;;;18.07;29.29;98719.63;5041667;27;130196;-71
2022/05/23 11:54:34;;;;;;;4.93;2.40;;;16.90;99.90;;;18.05;29.97;98720.00;5039970;27;130680;-73
2022/05/23 11:57:18;;;;;;;5.47;2.25;;;16.70;99.90;;;17.57;31.13;98718.00;5039244;27;121815;-70